sensor_id;sensor_type;location;lat;lon;timestamp;pressure;altitude;pressure_sealevel;temperature;humidity
12785;BME280;6456;42.680;23.260;2024-02-26T00:02:00;94150.63;;;9.27;100.00
12785;BME280;6456;42.680;23.260;2024-02-26T00:04:31;94212.34;;;9.61;100.00
12785;BME280;6456;42.680;23.260;2024-02-26T00:06:58;94201.81;;;9.61;100.00
12785;BME280;6456;42.680;23.260;2024-02-26T00:09:25;94170.53;;;9.35;100.00
12785;BME280;6456;42.680;23.260;2024-02-26T00:11:57;94128.56;;;9.10;100.00
12785;BME280;6456;42.680;23.260;2024-02-26T00:14:24;94147.91;;;9.16;100.00
12785;BME280;6456;42.680;23.260;2024-02-26T00:16:51;94192.31;;;9.42;100.00
12785;BME280;6456;42.680;23.260;2024-02-26T00:19:18;94166.59;;;9.26;100.00
12785;BME280;6456;42.680;23.260;2024-02-26T00:21:45;94143.06;;;9.13;100.00
12785;BME280;6456;42.680;23.260;2024-02-26T00:24:13;94166.00;;;9.24;100.00
12785;BME280;6456;42.680;23.260;2024-02-26T00:26:40;94162.97;;;9.27;100.00
12785;BME280;6456;42.680;23.260;2024-02-26T00:29:08;94218.75;;;9.65;100.00
12785;BME280;6456;42.680;23.260;2024-02-26T00:31:36;94199.47;;;9.53;100.00
12785;BME280;6456;42.680;23.260;2024-02-26T00:34:03;94205.69;;;9.58;100.00
12785;BME280;6456;42.680;23.260;2024-02-26T00:36:30;94165.94;;;9.30;100.00
12785;BME280;6456;42.680;23.260;2024-02-26T00:38:58;94144.13;;;9.30;100.00
12785;BME280;6456;42.680;23.260;2024-02-26T00:41:25;94116.09;;;9.06;100.00
12785;BME280;6456;42.680;23.260;2024-02-26T00:43:52;94110.56;;;9.14;100.00
12785;BME280;6456;42.680;23.260;2024-02-26T00:46:21;94142.75;;;9.27;100.00
12785;BME280;6456;42.680;23.260;2024-02-26T00:48:48;94153.50;;;9.44;100.00
12785;BME280;6456;42.680;23.260;2024-02-26T00:51:15;94090.66;;;9.06;100.00
12785;BME280;6456;42.680;23.260;2024-02-26T00:53:42;94150.66;;;9.45;100.00
12785;BME280;6456;42.680;23.260;2024-02-26T00:56:09;94146.63;;;9.43;100.00
12785;BME280;6456;42.680;23.260;2024-02-26T00:58:36;94158.63;;;9.57;100.00
12785;BME280;6456;42.680;23.260;2024-02-26T01:01:03;94095.56;;;9.21;100.00
12785;BME280;6456;42.680;23.260;2024-02-26T01:03:31;94156.94;;;9.62;100.00
12785;BME280;6456;42.680;23.260;2024-02-26T01:05:58;94195.00;;;9.78;100.00
12785;BME280;6456;42.680;23.260;2024-02-26T01:08:25;94140.47;;;9.55;100.00
12785;BME280;6456;42.680;23.260;2024-02-26T01:10:52;94154.84;;;9.71;100.00
12785;BME280;6456;42.680;23.260;2024-02-26T01:13:19;94142.44;;;9.60;100.00
12785;BME280;6456;42.680;23.260;2024-02-26T01:15:46;94158.88;;;9.74;100.00
12785;BME280;6456;42.680;23.260;2024-02-26T01:18:13;94145.19;;;9.65;100.00
12785;BME280;6456;42.680;23.260;2024-02-26T01:20:42;94111.84;;;9.47;100.00
12785;BME280;6456;42.680;23.260;2024-02-26T01:23:09;94075.53;;;9.26;100.00
12785;BME280;6456;42.680;23.260;2024-02-26T01:25:36;94064.34;;;9.13;100.00
12785;BME280;6456;42.680;23.260;2024-02-26T01:28:04;94146.75;;;9.73;100.00
12785;BME280;6456;42.680;23.260;2024-02-26T01:30:32;94116.16;;;9.60;100.00
12785;BME280;6456;42.680;23.260;2024-02-26T01:32:59;94111.34;;;9.57;100.00
12785;BME280;6456;42.680;23.260;2024-02-26T01:35:26;94112.88;;;9.64;100.00
12785;BME280;6456;42.680;23.260;2024-02-26T01:37:55;94090.78;;;9.54;100.00
12785;BME280;6456;42.680;23.260;2024-02-26T01:40:26;94157.16;;;9.97;100.00
12785;BME280;6456;42.680;23.260;2024-02-26T01:42:55;94128.63;;;9.83;100.00
12785;BME280;6456;42.680;23.260;2024-02-26T01:45:22;94096.19;;;9.59;100.00
12785;BME280;6456;42.680;23.260;2024-02-26T01:47:50;94122.09;;;9.74;100.00
12785;BME280;6456;42.680;23.260;2024-02-26T01:50:18;94116.41;;;9.77;100.00
12785;BME280;6456;42.680;23.260;2024-02-26T01:52:45;94123.97;;;9.85;100.00
12785;BME280;6456;42.680;23.260;2024-02-26T01:55:15;94081.28;;;9.53;100.00
12785;BME280;6456;42.680;23.260;2024-02-26T01:57:44;94108.72;;;9.75;100.00
12785;BME280;6456;42.680;23.260;2024-02-26T02:00:12;94125.66;;;9.79;100.00
12785;BME280;6456;42.680;23.260;2024-02-26T02:02:42;94078.38;;;9.43;100.00
12785;BME280;6456;42.680;23.260;2024-02-26T02:05:12;94158.94;;;10.03;100.00
12785;BME280;6456;42.680;23.260;2024-02-26T02:07:41;94096.47;;;9.69;100.00
12785;BME280;6456;42.680;23.260;2024-02-26T02:10:08;94138.94;;;9.84;100.00
12785;BME280;6456;42.680;23.260;2024-02-26T02:12:37;94102.16;;;9.66;100.00
12785;BME280;6456;42.680;23.260;2024-02-26T02:15:06;94135.28;;;9.85;100.00
12785;BME280;6456;42.680;23.260;2024-02-26T02:17:34;94133.38;;;9.92;100.00
12785;BME280;6456;42.680;23.260;2024-02-26T02:20:01;94161.13;;;10.06;100.00
12785;BME280;6456;42.680;23.260;2024-02-26T02:22:30;94096.25;;;9.71;100.00
12785;BME280;6456;42.680;23.260;2024-02-26T02:24:58;94113.44;;;9.85;100.00
12785;BME280;6456;42.680;23.260;2024-02-26T02:27:27;94120.69;;;9.89;100.00
12785;BME280;6456;42.680;23.260;2024-02-26T02:29:54;94099.03;;;9.76;100.00
12785;BME280;6456;42.680;23.260;2024-02-26T02:32:21;94076.34;;;9.63;100.00
12785;BME280;6456;42.680;23.260;2024-02-26T02:34:49;94089.75;;;9.73;100.00
12785;BME280;6456;42.680;23.260;2024-02-26T02:37:16;94096.53;;;9.81;100.00
12785;BME280;6456;42.680;23.260;2024-02-26T02:39:45;94120.75;;;9.83;100.00
12785;BME280;6456;42.680;23.260;2024-02-26T02:42:12;94085.22;;;9.62;100.00
12785;BME280;6456;42.680;23.260;2024-02-26T02:44:39;94152.66;;;10.04;100.00
12785;BME280;6456;42.680;23.260;2024-02-26T02:47:06;94056.22;;;9.39;100.00
12785;BME280;6456;42.680;23.260;2024-02-26T02:49:33;94132.44;;;9.87;100.00
12785;BME280;6456;42.680;23.260;2024-02-26T02:52:00;94064.22;;;9.44;100.00
12785;BME280;6456;42.680;23.260;2024-02-26T02:54:27;94131.28;;;9.83;100.00
12785;BME280;6456;42.680;23.260;2024-02-26T02:56:55;94117.50;;;9.69;100.00
12785;BME280;6456;42.680;23.260;2024-02-26T02:59:22;94101.22;;;9.60;100.00
12785;BME280;6456;42.680;23.260;2024-02-26T03:01:49;94061.47;;;9.39;100.00
12785;BME280;6456;42.680;23.260;2024-02-26T03:04:17;94164.50;;;10.13;100.00
12785;BME280;6456;42.680;23.260;2024-02-26T03:06:44;94119.09;;;9.88;100.00
12785;BME280;6456;42.680;23.260;2024-02-26T03:09:11;94136.91;;;9.86;100.00
12785;BME280;6456;42.680;23.260;2024-02-26T03:11:38;94136.47;;;9.89;100.00
12785;BME280;6456;42.680;23.260;2024-02-26T03:14:07;94043.13;;;9.32;100.00
12785;BME280;6456;42.680;23.260;2024-02-26T03:16:35;94107.84;;;9.81;100.00
12785;BME280;6456;42.680;23.260;2024-02-26T03:19:02;94048.00;;;9.47;100.00
12785;BME280;6456;42.680;23.260;2024-02-26T03:21:29;94073.78;;;9.56;100.00
12785;BME280;6456;42.680;23.260;2024-02-26T03:23:56;94096.09;;;9.65;100.00
12785;BME280;6456;42.680;23.260;2024-02-26T03:26:23;94087.06;;;9.61;100.00
12785;BME280;6456;42.680;23.260;2024-02-26T03:28:50;94131.84;;;10.03;100.00
12785;BME280;6456;42.680;23.260;2024-02-26T03:31:19;94078.44;;;9.73;100.00
12785;BME280;6456;42.680;23.260;2024-02-26T03:33:47;94098.72;;;9.84;100.00
12785;BME280;6456;42.680;23.260;2024-02-26T03:36:14;94051.16;;;9.55;100.00
12785;BME280;6456;42.680;23.260;2024-02-26T03:38:41;94135.38;;;10.15;100.00
12785;BME280;6456;42.680;23.260;2024-02-26T03:41:08;94041.91;;;9.53;100.00
12785;BME280;6456;42.680;23.260;2024-02-26T03:43:35;94094.13;;;9.79;100.00
12785;BME280;6456;42.680;23.260;2024-02-26T03:46:02;94134.28;;;10.04;100.00
12785;BME280;6456;42.680;23.260;2024-02-26T03:48:31;94047.97;;;9.53;100.00
12785;BME280;6456;42.680;23.260;2024-02-26T03:50:58;94080.91;;;9.67;100.00
12785;BME280;6456;42.680;23.260;2024-02-26T03:53:25;94066.69;;;9.57;100.00
12785;BME280;6456;42.680;23.260;2024-02-26T03:55:53;94074.41;;;9.70;100.00
12785;BME280;6456;42.680;23.260;2024-02-26T03:58:20;94137.69;;;10.05;100.00
12785;BME280;6456;42.680;23.260;2024-02-26T04:00:48;94058.47;;;9.53;100.00
12785;BME280;6456;42.680;23.260;2024-02-26T04:03:15;94048.91;;;9.41;100.00
12785;BME280;6456;42.680;23.260;2024-02-26T04:05:43;94101.56;;;9.82;100.00
12785;BME280;6456;42.680;23.260;2024-02-26T04:08:10;94092.97;;;9.75;100.00
12785;BME280;6456;42.680;23.260;2024-02-26T04:10:37;94046.72;;;9.56;100.00
12785;BME280;6456;42.680;23.260;2024-02-26T04:13:05;94072.38;;;9.72;100.00
12785;BME280;6456;42.680;23.260;2024-02-26T04:15:32;94083.13;;;9.71;100.00
12785;BME280;6456;42.680;23.260;2024-02-26T04:17:59;94111.72;;;9.97;100.00
12785;BME280;6456;42.680;23.260;2024-02-26T04:20:26;94051.44;;;9.65;100.00
12785;BME280;6456;42.680;23.260;2024-02-26T04:22:54;94089.75;;;9.91;100.00
12785;BME280;6456;42.680;23.260;2024-02-26T04:25:21;94005.75;;;9.37;100.00
12785;BME280;6456;42.680;23.260;2024-02-26T04:27:48;94026.44;;;9.45;100.00
12785;BME280;6456;42.680;23.260;2024-02-26T04:30:16;94063.19;;;9.63;100.00
12785;BME280;6456;42.680;23.260;2024-02-26T04:32:43;94118.34;;;9.99;100.00
12785;BME280;6456;42.680;23.260;2024-02-26T04:35:10;94083.97;;;9.83;100.00
12785;BME280;6456;42.680;23.260;2024-02-26T04:37:37;94116.75;;;9.98;100.00
12785;BME280;6456;42.680;23.260;2024-02-26T04:40:07;94089.38;;;9.69;100.00
12785;BME280;6456;42.680;23.260;2024-02-26T04:42:34;94093.34;;;9.79;100.00
12785;BME280;6456;42.680;23.260;2024-02-26T04:45:02;94121.41;;;9.96;100.00
12785;BME280;6456;42.680;23.260;2024-02-26T04:47:29;94126.44;;;9.98;100.00
12785;BME280;6456;42.680;23.260;2024-02-26T04:49:56;94110.47;;;9.81;100.00
12785;BME280;6456;42.680;23.260;2024-02-26T04:52:23;94104.56;;;9.86;100.00
12785;BME280;6456;42.680;23.260;2024-02-26T04:54:50;94128.25;;;9.97;100.00
12785;BME280;6456;42.680;23.260;2024-02-26T04:57:19;94102.59;;;9.81;100.00
12785;BME280;6456;42.680;23.260;2024-02-26T04:59:46;94099.03;;;9.76;100.00
12785;BME280;6456;42.680;23.260;2024-02-26T05:02:13;94051.38;;;9.36;100.00
12785;BME280;6456;42.680;23.260;2024-02-26T05:04:40;94154.25;;;10.05;100.00
12785;BME280;6456;42.680;23.260;2024-02-26T05:07:07;94103.59;;;9.80;100.00
12785;BME280;6456;42.680;23.260;2024-02-26T05:09:34;94132.81;;;9.90;100.00
12785;BME280;6456;42.680;23.260;2024-02-26T05:12:02;94083.06;;;9.59;100.00
12785;BME280;6456;42.680;23.260;2024-02-26T05:14:30;94046.38;;;9.34;100.00
12785;BME280;6456;42.680;23.260;2024-02-26T05:16:57;94038.53;;;9.28;100.00
12785;BME280;6456;42.680;23.260;2024-02-26T05:19:24;94143.31;;;9.90;100.00
12785;BME280;6456;42.680;23.260;2024-02-26T05:21:51;94181.88;;;9.96;100.00
12785;BME280;6456;42.680;23.260;2024-02-26T05:24:19;94179.00;;;9.98;100.00
12785;BME280;6456;42.680;23.260;2024-02-26T05:26:48;94182.69;;;9.97;100.00
12785;BME280;6456;42.680;23.260;2024-02-26T05:29:15;94073.78;;;9.38;100.00
12785;BME280;6456;42.680;23.260;2024-02-26T05:31:43;94181.13;;;10.07;100.00
12785;BME280;6456;42.680;23.260;2024-02-26T05:34:10;94164.47;;;9.95;100.00
12785;BME280;6456;42.680;23.260;2024-02-26T05:36:37;94175.13;;;10.00;100.00
12785;BME280;6456;42.680;23.260;2024-02-26T05:39:04;94169.53;;;9.97;100.00
12785;BME280;6456;42.680;23.260;2024-02-26T05:41:32;94072.47;;;9.29;100.00
12785;BME280;6456;42.680;23.260;2024-02-26T05:43:59;94155.56;;;9.78;100.00
12785;BME280;6456;42.680;23.260;2024-02-26T05:46:26;94167.09;;;9.77;100.00
12785;BME280;6456;42.680;23.260;2024-02-26T05:48:55;94172.97;;;9.79;100.00
12785;BME280;6456;42.680;23.260;2024-02-26T05:51:22;94079.06;;;9.14;100.00
12785;BME280;6456;42.680;23.260;2024-02-26T05:53:49;94063.38;;;9.07;100.00
12785;BME280;6456;42.680;23.260;2024-02-26T05:56:20;94112.16;;;9.39;100.00
12785;BME280;6456;42.680;23.260;2024-02-26T05:58:47;94098.75;;;9.23;100.00
12785;BME280;6456;42.680;23.260;2024-02-26T06:01:15;94182.28;;;9.75;100.00
12785;BME280;6456;42.680;23.260;2024-02-26T06:03:42;94182.44;;;9.80;100.00
12785;BME280;6456;42.680;23.260;2024-02-26T06:06:11;94147.47;;;9.61;100.00
12785;BME280;6456;42.680;23.260;2024-02-26T06:08:40;94090.63;;;9.31;100.00
12785;BME280;6456;42.680;23.260;2024-02-26T06:11:06;94172.03;;;9.92;100.00
12785;BME280;6456;42.680;23.260;2024-02-26T06:13:35;94108.13;;;9.55;100.00
12785;BME280;6456;42.680;23.260;2024-02-26T06:16:03;94199.50;;;10.14;100.00
12785;BME280;6456;42.680;23.260;2024-02-26T06:18:30;94097.84;;;9.53;100.00
12785;BME280;6456;42.680;23.260;2024-02-26T06:20:57;94151.84;;;9.86;100.00
12785;BME280;6456;42.680;23.260;2024-02-26T06:23:26;94204.81;;;10.25;100.00
12785;BME280;6456;42.680;23.260;2024-02-26T06:25:53;94147.69;;;9.96;100.00
12785;BME280;6456;42.680;23.260;2024-02-26T06:28:20;94191.66;;;10.25;100.00
12785;BME280;6456;42.680;23.260;2024-02-26T06:30:47;94138.34;;;10.00;100.00
12785;BME280;6456;42.680;23.260;2024-02-26T06:33:15;94147.75;;;10.08;100.00
12785;BME280;6456;42.680;23.260;2024-02-26T06:35:44;94168.28;;;10.36;100.00
12785;BME280;6456;42.680;23.260;2024-02-26T06:38:11;94148.22;;;10.23;100.00
12785;BME280;6456;42.680;23.260;2024-02-26T06:40:40;94206.38;;;10.63;100.00
12785;BME280;6456;42.680;23.260;2024-02-26T06:43:07;94196.75;;;10.57;100.00
12785;BME280;6456;42.680;23.260;2024-02-26T06:45:34;94138.78;;;10.15;100.00
12785;BME280;6456;42.680;23.260;2024-02-26T06:48:01;94202.44;;;10.54;100.00
12785;BME280;6456;42.680;23.260;2024-02-26T06:50:29;94168.13;;;10.30;100.00
12785;BME280;6456;42.680;23.260;2024-02-26T06:52:56;94132.88;;;10.20;100.00
12785;BME280;6456;42.680;23.260;2024-02-26T06:55:23;94208.94;;;10.69;100.00
12785;BME280;6456;42.680;23.260;2024-02-26T06:57:52;94204.91;;;10.67;100.00
12785;BME280;6456;42.680;23.260;2024-02-26T07:00:19;94201.47;;;10.66;100.00
12785;BME280;6456;42.680;23.260;2024-02-26T07:02:49;94197.66;;;10.62;100.00
12785;BME280;6456;42.680;23.260;2024-02-26T07:05:16;94140.34;;;10.35;100.00
12785;BME280;6456;42.680;23.260;2024-02-26T07:07:43;94130.03;;;10.21;100.00
12785;BME280;6456;42.680;23.260;2024-02-26T07:10:10;94200.50;;;10.79;100.00
12785;BME280;6456;42.680;23.260;2024-02-26T07:12:37;94178.38;;;10.68;100.00
12785;BME280;6456;42.680;23.260;2024-02-26T07:15:07;94215.16;;;10.86;100.00
12785;BME280;6456;42.680;23.260;2024-02-26T07:17:34;94222.16;;;10.92;100.00
12785;BME280;6456;42.680;23.260;2024-02-26T07:20:02;94242.19;;;10.93;100.00
12785;BME280;6456;42.680;23.260;2024-02-26T07:22:30;94227.78;;;10.96;100.00
12785;BME280;6456;42.680;23.260;2024-02-26T07:24:57;94180.75;;;10.70;100.00
12785;BME280;6456;42.680;23.260;2024-02-26T07:27:24;94218.88;;;10.97;100.00
12785;BME280;6456;42.680;23.260;2024-02-26T07:29:51;94214.75;;;11.01;100.00
12785;BME280;6456;42.680;23.260;2024-02-26T07:32:19;94185.72;;;10.78;100.00
12785;BME280;6456;42.680;23.260;2024-02-26T07:34:47;94199.84;;;10.95;100.00
12785;BME280;6456;42.680;23.260;2024-02-26T07:37:15;94163.06;;;10.77;100.00
12785;BME280;6456;42.680;23.260;2024-02-26T07:39:42;94160.44;;;10.77;100.00
12785;BME280;6456;42.680;23.260;2024-02-26T07:42:10;94187.72;;;10.94;100.00
12785;BME280;6456;42.680;23.260;2024-02-26T07:44:37;94204.47;;;11.11;100.00
12785;BME280;6456;42.680;23.260;2024-02-26T07:47:04;94236.72;;;11.36;100.00
12785;BME280;6456;42.680;23.260;2024-02-26T07:49:32;94198.78;;;11.14;100.00
12785;BME280;6456;42.680;23.260;2024-02-26T07:52:00;94207.38;;;11.33;100.00
12785;BME280;6456;42.680;23.260;2024-02-26T07:54:28;94199.34;;;11.16;100.00
12785;BME280;6456;42.680;23.260;2024-02-26T07:56:56;94139.19;;;10.90;100.00
12785;BME280;6456;42.680;23.260;2024-02-26T07:59:24;94183.31;;;11.18;100.00
12785;BME280;6456;42.680;23.260;2024-02-26T08:01:51;94141.34;;;10.93;100.00
12785;BME280;6456;42.680;23.260;2024-02-26T08:04:18;94114.59;;;10.96;100.00
12785;BME280;6456;42.680;23.260;2024-02-26T08:06:46;94166.94;;;11.27;100.00
12785;BME280;6456;42.680;23.260;2024-02-26T08:09:14;94166.50;;;11.30;100.00
12785;BME280;6456;42.680;23.260;2024-02-26T08:11:41;94191.25;;;11.52;100.00
12785;BME280;6456;42.680;23.260;2024-02-26T08:14:08;94229.91;;;11.82;100.00
12785;BME280;6456;42.680;23.260;2024-02-26T08:16:35;94222.22;;;11.80;100.00
12785;BME280;6456;42.680;23.260;2024-02-26T08:19:03;94120.47;;;11.21;100.00
12785;BME280;6456;42.680;23.260;2024-02-26T08:21:33;94230.84;;;11.87;100.00
12785;BME280;6456;42.680;23.260;2024-02-26T08:24:06;94225.91;;;11.79;100.00
12785;BME280;6456;42.680;23.260;2024-02-26T08:26:33;94203.00;;;11.80;100.00
12785;BME280;6456;42.680;23.260;2024-02-26T08:29:00;94141.75;;;11.43;100.00
12785;BME280;6456;42.680;23.260;2024-02-26T08:31:28;94172.25;;;11.62;100.00
12785;BME280;6456;42.680;23.260;2024-02-26T08:33:56;94111.66;;;11.39;100.00
12785;BME280;6456;42.680;23.260;2024-02-26T08:36:23;94167.44;;;11.94;100.00
12785;BME280;6456;42.680;23.260;2024-02-26T08:38:54;94117.38;;;11.71;100.00
12785;BME280;6456;42.680;23.260;2024-02-26T08:41:22;94166.25;;;12.13;100.00
12785;BME280;6456;42.680;23.260;2024-02-26T08:43:49;94109.00;;;11.85;100.00
12785;BME280;6456;42.680;23.260;2024-02-26T08:46:16;94194.66;;;12.34;100.00
12785;BME280;6456;42.680;23.260;2024-02-26T08:48:44;94172.09;;;12.27;100.00
12785;BME280;6456;42.680;23.260;2024-02-26T08:51:12;94097.56;;;11.80;100.00
12785;BME280;6456;42.680;23.260;2024-02-26T08:53:42;94098.94;;;11.82;100.00
12785;BME280;6456;42.680;23.260;2024-02-26T08:56:09;94096.81;;;11.96;100.00
12785;BME280;6456;42.680;23.260;2024-02-26T08:58:44;94207.69;;;12.80;100.00
12785;BME280;6456;42.680;23.260;2024-02-26T09:01:12;94149.53;;;12.47;100.00
12785;BME280;6456;42.680;23.260;2024-02-26T09:03:39;94148.38;;;12.55;100.00
12785;BME280;6456;42.680;23.260;2024-02-26T09:06:06;94158.13;;;12.82;100.00
12785;BME280;6456;42.680;23.260;2024-02-26T09:08:33;94101.97;;;12.42;100.00
12785;BME280;6456;42.680;23.260;2024-02-26T09:11:02;94096.44;;;12.44;100.00
12785;BME280;6456;42.680;23.260;2024-02-26T09:13:30;94210.97;;;13.27;100.00
12785;BME280;6456;42.680;23.260;2024-02-26T09:15:59;94167.06;;;13.10;100.00
12785;BME280;6456;42.680;23.260;2024-02-26T09:18:26;94089.22;;;12.67;100.00
12785;BME280;6456;42.680;23.260;2024-02-26T09:20:55;94099.94;;;12.77;100.00
12785;BME280;6456;42.680;23.260;2024-02-26T09:23:25;94173.47;;;13.30;100.00
12785;BME280;6456;42.680;23.260;2024-02-26T09:25:52;94140.16;;;13.13;100.00
12785;BME280;6456;42.680;23.260;2024-02-26T09:28:19;94174.28;;;13.31;100.00
12785;BME280;6456;42.680;23.260;2024-02-26T09:30:47;94120.44;;;13.04;100.00
12785;BME280;6456;42.680;23.260;2024-02-26T09:33:17;94111.63;;;12.98;99.33
12785;BME280;6456;42.680;23.260;2024-02-26T09:35:44;94095.56;;;13.00;99.90
12785;BME280;6456;42.680;23.260;2024-02-26T09:38:14;94134.75;;;13.19;99.67
12785;BME280;6456;42.680;23.260;2024-02-26T09:40:42;94158.28;;;13.37;100.00
12785;BME280;6456;42.680;23.260;2024-02-26T09:43:14;94133.28;;;13.12;100.00
12785;BME280;6456;42.680;23.260;2024-02-26T09:45:42;94075.38;;;12.94;100.00
12785;BME280;6456;42.680;23.260;2024-02-26T09:48:10;94148.97;;;13.52;100.00
12785;BME280;6456;42.680;23.260;2024-02-26T09:50:42;94149.94;;;13.62;100.00
12785;BME280;6456;42.680;23.260;2024-02-26T09:53:19;94078.34;;;13.30;99.49
12785;BME280;6456;42.680;23.260;2024-02-26T09:55:52;94118.03;;;13.69;98.04
12785;BME280;6456;42.680;23.260;2024-02-26T09:58:21;94101.38;;;13.68;98.16
12785;BME280;6456;42.680;23.260;2024-02-26T10:00:55;94154.19;;;14.01;97.58
12785;BME280;6456;42.680;23.260;2024-02-26T10:03:26;94162.66;;;14.03;95.11
12785;BME280;6456;42.680;23.260;2024-02-26T10:05:58;94137.28;;;14.02;90.15
12785;BME280;6456;42.680;23.260;2024-02-26T10:08:28;94118.44;;;13.99;88.72
12785;BME280;6456;42.680;23.260;2024-02-26T10:10:56;94047.16;;;13.87;87.46
12785;BME280;6456;42.680;23.260;2024-02-26T10:13:23;94140.44;;;14.64;85.80
12785;BME280;6456;42.680;23.260;2024-02-26T10:15:51;94100.50;;;14.44;81.68
12785;BME280;6456;42.680;23.260;2024-02-26T10:18:18;94041.72;;;14.21;80.32
12785;BME280;6456;42.680;23.260;2024-02-26T10:21:03;94146.91;;;14.78;78.83
12785;BME280;6456;42.680;23.260;2024-02-26T10:23:30;94046.41;;;14.13;79.57
12785;BME280;6456;42.680;23.260;2024-02-26T10:26:00;94058.66;;;14.20;79.39
12785;BME280;6456;42.680;23.260;2024-02-26T10:28:29;94158.16;;;14.91;79.01
12785;BME280;6456;42.680;23.260;2024-02-26T10:31:00;94107.63;;;14.70;77.88
12785;BME280;6456;42.680;23.260;2024-02-26T10:33:27;94093.06;;;14.68;77.20
12785;BME280;6456;42.680;23.260;2024-02-26T10:35:54;94127.94;;;14.87;76.35
12785;BME280;6456;42.680;23.260;2024-02-26T10:38:23;94057.34;;;14.44;76.48
12785;BME280;6456;42.680;23.260;2024-02-26T10:40:50;94092.44;;;14.61;75.47
12785;BME280;6456;42.680;23.260;2024-02-26T10:43:17;94060.63;;;14.56;75.38
12785;BME280;6456;42.680;23.260;2024-02-26T10:45:45;94092.03;;;15.01;75.30
12785;BME280;6456;42.680;23.260;2024-02-26T10:48:13;94056.50;;;14.97;75.09
12785;BME280;6456;42.680;23.260;2024-02-26T10:50:43;94082.78;;;15.03;72.83
12785;BME280;6456;42.680;23.260;2024-02-26T10:53:15;94080.69;;;15.05;72.84
12785;BME280;6456;42.680;23.260;2024-02-26T10:55:48;94020.06;;;14.77;71.27
12785;BME280;6456;42.680;23.260;2024-02-26T10:58:16;94075.25;;;15.22;71.17
12785;BME280;6456;42.680;23.260;2024-02-26T11:00:45;94041.88;;;14.89;70.22
12785;BME280;6456;42.680;23.260;2024-02-26T11:03:13;94102.91;;;15.36;70.50
12785;BME280;6456;42.680;23.260;2024-02-26T11:05:47;94016.34;;;14.78;70.26
12785;BME280;6456;42.680;23.260;2024-02-26T11:08:16;94010.13;;;14.94;71.17
12785;BME280;6456;42.680;23.260;2024-02-26T11:10:47;93997.50;;;15.06;71.63
12785;BME280;6456;42.680;23.260;2024-02-26T11:13:18;94101.81;;;15.64;68.81
12785;BME280;6456;42.680;23.260;2024-02-26T11:15:46;93999.22;;;14.91;69.23
12785;BME280;6456;42.680;23.260;2024-02-26T11:18:15;94075.34;;;15.32;69.36
12785;BME280;6456;42.680;23.260;2024-02-26T11:20:42;93990.47;;;14.85;69.72
12785;BME280;6456;42.680;23.260;2024-02-26T11:23:10;94043.78;;;15.30;70.01
12785;BME280;6456;42.680;23.260;2024-02-26T11:25:42;94016.16;;;15.21;68.27
12785;BME280;6456;42.680;23.260;2024-02-26T11:28:14;94067.81;;;15.56;68.35
12785;BME280;6456;42.680;23.260;2024-02-26T11:30:46;94039.84;;;15.33;67.37
12785;BME280;6456;42.680;23.260;2024-02-26T11:33:17;93997.50;;;15.06;67.64
12785;BME280;6456;42.680;23.260;2024-02-26T11:35:45;94118.97;;;15.88;67.64
12785;BME280;6456;42.680;23.260;2024-02-26T11:38:17;93983.94;;;14.98;66.87
12785;BME280;6456;42.680;23.260;2024-02-26T11:40:46;94096.56;;;15.74;67.20
12785;BME280;6456;42.680;23.260;2024-02-26T11:43:17;94053.13;;;15.38;67.84
12785;BME280;6456;42.680;23.260;2024-02-26T11:45:51;94073.69;;;15.58;68.95
12785;BME280;6456;42.680;23.260;2024-02-26T11:48:23;94068.44;;;15.68;68.65
12785;BME280;6456;42.680;23.260;2024-02-26T11:50:53;93975.34;;;15.22;68.19
12785;BME280;6456;42.680;23.260;2024-02-26T11:53:26;94015.06;;;15.59;67.23
12785;BME280;6456;42.680;23.260;2024-02-26T11:56:20;93998.63;;;15.57;67.64
12785;BME280;6456;42.680;23.260;2024-02-26T11:59:03;94072.81;;;15.94;66.63
12785;BME280;6456;42.680;23.260;2024-02-26T12:01:41;94001.44;;;15.40;65.76
12785;BME280;6456;42.680;23.260;2024-02-26T12:04:13;94066.09;;;15.81;65.68
12785;BME280;6456;42.680;23.260;2024-02-26T12:06:42;94029.16;;;15.60;65.40
12785;BME280;6456;42.680;23.260;2024-02-26T12:09:11;94084.59;;;16.13;66.34
12785;BME280;6456;42.680;23.260;2024-02-26T12:11:39;94043.59;;;15.89;63.20
12785;BME280;6456;42.680;23.260;2024-02-26T12:14:09;94070.50;;;16.13;63.13
12785;BME280;6456;42.680;23.260;2024-02-26T12:16:37;94045.75;;;15.97;62.49
12785;BME280;6456;42.680;23.260;2024-02-26T12:19:05;93977.69;;;15.61;61.91
12785;BME280;6456;42.680;23.260;2024-02-26T12:21:38;94066.06;;;16.28;63.03
12785;BME280;6456;42.680;23.260;2024-02-26T12:24:09;94034.38;;;16.01;60.88
12785;BME280;6456;42.680;23.260;2024-02-26T12:26:37;93980.63;;;15.64;61.45
12785;BME280;6456;42.680;23.260;2024-02-26T12:29:04;94051.16;;;16.22;62.03
12785;BME280;6456;42.680;23.260;2024-02-26T12:31:33;93996.13;;;15.92;62.03
12785;BME280;6456;42.680;23.260;2024-02-26T12:34:02;93991.91;;;15.96;60.28
12785;BME280;6456;42.680;23.260;2024-02-26T12:36:30;94046.66;;;16.23;59.41
12785;BME280;6456;42.680;23.260;2024-02-26T12:38:58;94057.13;;;16.54;60.16
12785;BME280;6456;42.680;23.260;2024-02-26T12:41:26;93973.09;;;16.03;60.53
12785;BME280;6456;42.680;23.260;2024-02-26T12:43:54;94052.13;;;16.63;60.81
12785;BME280;6456;42.680;23.260;2024-02-26T12:46:23;94036.16;;;16.58;59.31
12785;BME280;6456;42.680;23.260;2024-02-26T12:48:54;94093.88;;;17.08;58.61
12785;BME280;6456;42.680;23.260;2024-02-26T12:51:27;94076.06;;;16.93;56.77
12785;BME280;6456;42.680;23.260;2024-02-26T12:53:55;93984.31;;;16.30;57.56
12785;BME280;6456;42.680;23.260;2024-02-26T12:56:29;93982.16;;;16.27;57.33
12785;BME280;6456;42.680;23.260;2024-02-26T12:59:00;94030.84;;;16.58;58.50
12785;BME280;6456;42.680;23.260;2024-02-26T13:01:32;93985.88;;;16.26;58.84
12785;BME280;6456;42.680;23.260;2024-02-26T13:04:02;94038.56;;;16.70;59.10